Time;durP1;ratioP1;P1;durP2;ratioP2;P2;SDS_P1;SDS_P2;PMS_P1;PMS_P2;Temp;Humidity;BMP_temperature;BMP_pressure;BME280_temperature;BME280_humidity;BME280_pressure;Samples;Min_cycle;Max_cycle;Signal;HPM_P1;HPM_P2
2024/04/01 00:00:41;;;;;;;9.57;6.03;;;13.80;89.40;;;;;;4992973;28;20120;-78
2024/04/01 00:03:07;;;;;;;9.32;5.38;;;13.80;89.40;;;;;;4975908;28;20049;-79
2024/04/01 00:05:32;;;;;;;8.40;5.55;;;13.70;89.40;;;;;;4975993;28;20137;-79
2024/04/01 00:07:59;;;;;;;8.77;5.63;;;13.70;89.40;;;;;;4976000;28;20050;-79
2024/04/01 00:10:24;;;;;;;7.63;5.47;;;13.80;89.40;;;;;;4993146;28;20022;-78
2024/04/01 00:12:50;;;;;;;8.45;5.72;;;13.60;89.30;;;;;;4993103;28;20038;-79
2024/04/01 00:15:16;;;;;;;8.32;5.07;;;13.70;89.40;;;;;;4993115;28;20022;-79
2024/04/01 00:17:42;;;;;;;8.57;5.72;;;13.70;89.40;;;;;;4975282;28;20027;-79
2024/04/01 00:20:08;;;;;;;10.18;6.30;;;13.60;89.30;;;;;;4975148;28;20380;-79
2024/04/01 00:22:34;;;;;;;7.97;5.40;;;13.70;89.40;;;;;;4975599;28;20022;-79
2024/04/01 00:25:00;;;;;;;8.90;5.60;;;13.70;89.40;;;;;;4993536;28;20022;-79
2024/04/01 00:27:25;;;;;;;8.57;5.80;;;13.80;89.40;;;;;;4975925;28;20499;-79
2024/04/01 00:29:51;;;;;;;10.00;6.30;;;13.80;89.40;;;;;;4976163;28;20042;-79
2024/04/01 00:32:16;;;;;;;7.55;5.20;;;13.80;89.40;;;;;;4993252;28;20026;-79
2024/04/01 00:34:42;;;;;;;9.70;5.80;;;13.80;89.50;;;;;;4975463;28;20027;-79
2024/04/01 00:37:07;;;;;;;9.00;5.78;;;13.70;89.40;;;;;;4975975;28;20041;-79
2024/04/01 00:39:33;;;;;;;8.88;5.75;;;13.70;89.40;;;;;;4992795;28;20037;-78
2024/04/01 00:41:58;;;;;;;8.88;6.07;;;13.70;89.40;;;;;;4975495;28;20489;-78
2024/04/01 00:44:24;;;;;;;9.27;5.90;;;13.60;89.30;;;;;;4975045;28;20498;-80
2024/04/01 00:46:50;;;;;;;8.45;5.60;;;13.70;89.40;;;;;;4979035;28;20599;-79
2024/04/01 00:49:21;;;;;;;9.18;5.55;;;13.70;89.40;;;;;;4979161;28;20045;-79
2024/04/01 00:51:47;;;;;;;9.45;5.93;;;13.70;89.40;;;;;;4996678;28;20021;-79
2024/04/01 00:54:14;;;;;;;9.27;6.05;;;13.70;89.40;;;;;;4996732;28;20023;-79
2024/04/01 00:56:44;;;;;;;9.25;5.85;;;13.60;89.30;;;;;;4996508;28;20069;-79
2024/04/01 00:59:10;;;;;;;9.00;5.75;;;13.70;89.40;;;;;;4996491;28;20034;-79
2024/04/01 01:01:36;;;;;;;8.60;5.75;;;13.70;89.40;;;;;;4978882;28;20025;-79
2024/04/01 01:04:04;;;;;;;9.05;5.95;;;13.80;89.40;;;;;;4996754;28;20109;-79
2024/04/01 01:06:30;;;;;;;9.75;6.22;;;13.80;89.40;;;;;;4996520;28;20414;-79
2024/04/01 01:08:57;;;;;;;8.63;5.75;;;13.70;89.40;;;;;;4979223;28;20495;-79
2024/04/01 01:11:23;;;;;;;9.23;6.10;;;13.80;89.40;;;;;;4978641;28;20058;-79
2024/04/01 01:13:49;;;;;;;8.25;5.65;;;13.80;89.40;;;;;;4996248;28;20104;-77
2024/04/01 01:16:15;;;;;;;8.63;5.75;;;13.70;89.40;;;;;;4996374;28;20471;-79
2024/04/01 01:18:40;;;;;;;8.90;5.60;;;13.70;89.40;;;;;;4978897;28;20030;-79
2024/04/01 01:21:08;;;;;;;9.25;6.28;;;13.80;89.40;;;;;;4978440;28;20031;-79
2024/04/01 01:23:34;;;;;;;9.57;6.28;;;13.70;89.40;;;;;;4978708;28;20027;-77
2024/04/01 01:25:59;;;;;;;9.43;5.95;;;13.80;89.40;;;;;;4978387;28;20033;-79
2024/04/01 01:28:25;;;;;;;9.68;5.90;;;13.60;89.30;;;;;;4978826;28;20018;-79
2024/04/01 01:30:51;;;;;;;8.05;5.68;;;13.70;89.40;;;;;;4978329;28;20038;-79
2024/04/01 01:33:17;;;;;;;9.27;5.97;;;13.70;89.40;;;;;;4978530;28;20076;-79
2024/04/01 01:35:44;;;;;;;8.93;6.05;;;13.70;89.40;;;;;;4996127;28;20031;-78
2024/04/01 01:38:12;;;;;;;9.02;5.97;;;13.70;89.30;;;;;;4978601;28;20037;-79
2024/04/01 01:40:38;;;;;;;8.57;6.20;;;13.80;89.40;;;;;;4995705;28;20066;-79
2024/04/01 01:43:03;;;;;;;9.15;5.95;;;13.60;89.30;;;;;;4978489;28;20074;-79
2024/04/01 01:45:29;;;;;;;10.75;6.50;;;13.70;89.30;;;;;;4978238;28;20080;-79
2024/04/01 01:47:55;;;;;;;9.95;6.00;;;13.60;89.30;;;;;;4995464;28;20030;-79
2024/04/01 01:50:20;;;;;;;8.75;6.20;;;13.60;89.30;;;;;;4977793;28;20034;-79
2024/04/01 01:52:46;;;;;;;8.70;5.72;;;13.70;89.30;;;;;;4995314;28;20173;-79
2024/04/01 01:55:11;;;;;;;9.13;6.32;;;13.80;89.40;;;;;;4995435;28;20402;-79
2024/04/01 01:57:37;;;;;;;9.68;6.18;;;13.70;89.30;;;;;;4994038;28;20066;-79
2024/04/01 02:00:05;;;;;;;8.80;6.00;;;13.80;89.30;;;;;;4995076;28;20029;-79
2024/04/01 02:02:32;;;;;;;9.18;5.90;;;13.70;89.30;;;;;;4995394;28;20804;-79
2024/04/01 02:04:58;;;;;;;9.63;6.70;;;13.80;89.30;;;;;;4977725;28;20033;-79
2024/04/01 02:07:23;;;;;;;9.43;6.00;;;13.70;89.30;;;;;;4995290;28;20026;-79
2024/04/01 02:09:49;;;;;;;8.88;6.13;;;13.70;89.30;;;;;;4995391;28;20026;-79
2024/04/01 02:12:14;;;;;;;9.30;6.30;;;13.70;89.30;;;;;;4995090;28;20689;-79
2024/04/01 02:14:40;;;;;;;9.48;6.07;;;13.80;89.40;;;;;;4995487;28;20506;-79
2024/04/01 02:17:07;;;;;;;9.02;6.07;;;13.80;89.40;;;;;;4977800;28;20030;-79
2024/04/01 02:19:34;;;;;;;8.10;5.78;;;13.70;89.30;;;;;;4977395;28;20117;-79
2024/04/01 02:22:00;;;;;;;9.13;5.82;;;13.60;89.10;;;;;;4977570;28;20117;-79
2024/04/01 02:24:28;;;;;;;8.20;5.57;;;13.70;89.30;;;;;;4994363;28;20130;-79
2024/04/01 02:26:54;;;;;;;9.65;6.15;;;13.70;89.20;;;;;;4994634;28;20434;-79
2024/04/01 02:29:20;;;;;;;8.82;6.00;;;13.60;89.10;;;;;;4994592;28;20046;-79
2024/04/01 02:31:47;;;;;;;9.05;5.93;;;13.70;89.10;;;;;;4994392;28;20023;-79
2024/04/01 02:34:12;;;;;;;9.18;5.95;;;13.70;89.10;;;;;;4994808;28;20077;-79
2024/04/01 02:36:38;;;;;;;8.48;5.60;;;13.60;89.10;;;;;;4977503;28;20412;-79
2024/04/01 02:39:04;;;;;;;8.43;5.18;;;13.80;89.20;;;;;;4994726;28;20471;-79
2024/04/01 02:41:31;;;;;;;8.38;5.53;;;13.80;89.20;;;;;;4976944;28;20026;-79
2024/04/01 02:43:56;;;;;;;8.07;5.40;;;13.80;89.30;;;;;;4976878;28;20018;-79
2024/04/01 02:46:22;;;;;;;7.65;5.25;;;13.80;89.20;;;;;;4994783;28;20030;-79
2024/04/01 02:48:48;;;;;;;8.40;5.70;;;13.70;89.20;;;;;;4977493;28;20026;-77
2024/04/01 02:51:14;;;;;;;8.68;5.78;;;13.70;89.20;;;;;;4977012;28;20475;-79
2024/04/01 02:53:47;;;;;;;9.73;6.25;;;13.80;89.30;;;;;;4977076;28;20034;-79
2024/04/01 02:56:16;;;;;;;8.52;5.30;;;13.70;89.20;;;;;;4994620;28;20082;-79
2024/04/01 02:58:45;;;;;;;8.15;5.75;;;13.70;89.20;;;;;;4994290;28;20026;-79
2024/04/01 03:01:11;;;;;;;7.80;5.35;;;13.70;89.20;;;;;;4976639;28;20036;-79
2024/04/01 03:03:37;;;;;;;7.82;5.03;;;13.70;89.20;;;;;;4994352;28;20029;-77
2024/04/01 03:06:03;;;;;;;8.25;5.25;;;13.70;89.20;;;;;;4994323;28;20034;-79
2024/04/01 03:08:32;;;;;;;8.77;5.22;;;13.70;89.30;;;;;;4976361;28;20117;-79
2024/04/01 03:11:02;;;;;;;8.38;4.97;;;13.70;89.30;;;;;;4976529;28;20027;-79
2024/04/01 03:13:28;;;;;;;8.00;5.22;;;13.80;89.40;;;;;;4993805;28;20034;-79
2024/04/01 03:15:54;;;;;;;8.48;5.70;;;13.80;89.30;;;;;;4994013;28;20034;-80
2024/04/01 03:18:21;;;;;;;7.68;5.10;;;13.70;89.30;;;;;;4994309;28;20022;-79
2024/04/01 03:20:47;;;;;;;8.75;5.20;;;13.80;89.40;;;;;;4976199;28;20033;-79
2024/04/01 03:23:16;;;;;;;7.93;5.03;;;13.60;89.30;;;;;;4994016;28;20550;-79
2024/04/01 03:25:48;;;;;;;9.02;5.40;;;13.70;89.30;;;;;;4976728;28;20092;-79
2024/04/01 03:28:14;;;;;;;8.20;5.20;;;13.60;89.30;;;;;;4994163;28;20023;-79
2024/04/01 03:30:39;;;;;;;8.40;5.55;;;13.70;89.40;;;;;;4993623;28;20090;-79
2024/04/01 03:33:06;;;;;;;8.20;5.13;;;13.70;89.30;;;;;;4993727;28;20029;-79
2024/04/01 03:35:32;;;;;;;8.65;5.50;;;13.60;89.30;;;;;;4993789;28;20489;-79
2024/04/01 03:37:58;;;;;;;8.10;5.22;;;13.70;89.40;;;;;;4976378;28;20030;-79
2024/04/01 03:40:23;;;;;;;8.75;5.03;;;13.70;89.40;;;;;;4975992;28;20034;-79
2024/04/01 03:42:49;;;;;;;7.90;4.90;;;13.60;89.30;;;;;;4976139;28;20034;-79
2024/04/01 03:45:15;;;;;;;8.65;5.28;;;13.70;89.40;;;;;;4993417;28;20109;-79
2024/04/01 03:47:40;;;;;;;8.23;5.15;;;13.70;89.40;;;;;;4976334;28;20041;-79
2024/04/01 03:50:06;;;;;;;8.15;5.05;;;13.70;89.40;;;;;;4976051;28;20033;-79
2024/04/01 03:52:34;;;;;;;8.15;5.10;;;13.70;89.40;;;;;;4993372;28;20049;-79
2024/04/01 03:54:59;;;;;;;7.20;4.80;;;13.80;89.50;;;;;;4993445;28;20487;-79
2024/04/01 03:57:25;;;;;;;8.32;5.20;;;13.70;89.40;;;;;;4993823;28;20034;-79
2024/04/01 03:59:50;;;;;;;8.18;5.07;;;13.80;89.50;;;;;;4993423;28;20026;-79
2024/04/01 04:02:17;;;;;;;8.32;5.30;;;13.70;89.40;;;;;;4993271;28;20427;-79
2024/04/01 04:04:42;;;;;;;7.28;5.03;;;13.70;89.40;;;;;;4993307;28;20678;-79
2024/04/01 04:07:08;;;;;;;8.18;4.97;;;13.80;89.40;;;;;;4975649;28;20061;-79
2024/04/01 04:09:34;;;;;;;7.95;5.03;;;13.60;89.40;;;;;;4975789;28;20467;-79
2024/04/01 04:12:00;;;;;;;8.13;5.20;;;13.70;89.40;;;;;;4993175;28;20037;-79
2024/04/01 04:14:26;;;;;;;7.43;4.85;;;13.70;89.40;;;;;;4975891;28;20034;-79
2024/04/01 04:16:52;;;;;;;8.77;5.00;;;13.60;89.80;;;;;;4993490;28;20022;-79
2024/04/01 04:19:19;;;;;;;7.60;5.00;;;13.70;89.40;;;;;;4992980;28;20050;-79
2024/04/01 04:21:45;;;;;;;7.20;4.55;;;13.80;89.40;;;;;;4979903;28;20454;-79
2024/04/01 04:24:11;;;;;;;7.35;4.95;;;13.70;89.40;;;;;;4997473;28;20057;-79
2024/04/01 04:26:37;;;;;;;8.52;5.30;;;13.60;89.40;;;;;;4997264;28;20459;-79
2024/04/01 04:29:03;;;;;;;7.97;5.07;;;13.60;89.30;;;;;;4997072;28;20030;-79
2024/04/01 04:31:30;;;;;;;8.13;5.05;;;13.60;89.30;;;;;;4979449;28;20030;-79
2024/04/01 04:33:56;;;;;;;7.20;4.80;;;13.70;89.40;;;;;;4979543;28;20026;-79
2024/04/01 04:36:22;;;;;;;7.25;4.72;;;13.70;89.40;;;;;;4997366;28;20535;-79
2024/04/01 04:38:47;;;;;;;9.38;5.68;;;13.70;89.40;;;;;;4997081;28;20125;-79
2024/04/01 04:41:16;;;;;;;7.18;4.75;;;13.70;89.40;;;;;;4979193;28;20403;-79
2024/04/01 04:43:45;;;;;;;7.82;4.72;;;13.70;89.40;;;;;;4979258;28;20482;-79
2024/04/01 04:46:14;;;;;;;7.38;4.78;;;13.70;89.40;;;;;;4979250;28;20023;-78
2024/04/01 04:48:41;;;;;;;7.68;4.75;;;13.60;89.40;;;;;;4979552;28;20025;-79
2024/04/01 04:51:07;;;;;;;7.43;5.00;;;13.70;89.40;;;;;;4979336;28;20034;-82
2024/04/01 04:53:33;;;;;;;7.95;4.78;;;13.80;89.50;;;;;;4979750;28;20034;-79
2024/04/01 04:55:58;;;;;;;6.85;4.65;;;13.80;89.50;;;;;;4979290;28;20101;-79
2024/04/01 04:58:24;;;;;;;7.93;4.75;;;13.70;89.40;;;;;;4996960;28;20475;-79
2024/04/01 05:00:50;;;;;;;7.45;4.82;;;13.70;89.40;;;;;;4996782;28;20081;-79
2024/04/01 05:03:15;;;;;;;7.22;4.65;;;13.60;89.40;;;;;;4979082;28;20033;-79
2024/04/01 05:05:41;;;;;;;7.90;4.70;;;13.70;89.40;;;;;;4979373;28;20034;-79
2024/04/01 05:08:06;;;;;;;7.05;4.38;;;13.70;89.40;;;;;;4979140;28;20122;-79
2024/04/01 05:10:33;;;;;;;7.90;5.05;;;13.70;89.50;;;;;;4978977;28;20054;-78
2024/04/01 05:12:59;;;;;;;7.93;5.00;;;13.70;89.40;;;;;;4978858;28;20479;-78
2024/04/01 05:15:25;;;;;;;7.40;4.80;;;13.70;89.40;;;;;;4978830;28;20077;-80
2024/04/01 05:17:51;;;;;;;7.18;4.50;;;13.60;89.40;;;;;;4978781;28;20026;-79
2024/04/01 05:20:16;;;;;;;7.10;4.82;;;13.70;89.50;;;;;;4978780;28;20101;-80
2024/04/01 05:22:42;;;;;;;7.22;4.65;;;13.70;89.40;;;;;;4996561;28;20049;-79
2024/04/01 05:25:08;;;;;;;7.82;4.80;;;13.70;89.40;;;;;;4996595;28;20022;-79
2024/04/01 05:27:33;;;;;;;7.30;4.70;;;13.70;89.50;;;;;;4978685;28;20150;-79
2024/04/01 05:30:09;;;;;;;8.40;5.28;;;13.70;89.50;;;;;;4996065;28;20065;-79
2024/04/01 05:32:35;;;;;;;7.00;4.60;;;13.70;89.50;;;;;;4995967;28;20026;-79
2024/04/01 05:35:02;;;;;;;6.97;4.50;;;13.70;89.50;;;;;;4978762;28;20031;-79
2024/04/01 05:37:28;;;;;;;7.68;4.45;;;13.70;89.40;;;;;;4978663;28;20398;-79
2024/04/01 05:39:54;;;;;;;6.85;4.95;;;13.70;89.40;;;;;;4995790;28;20026;-79
2024/04/01 05:42:20;;;;;;;7.63;5.00;;;13.70;89.50;;;;;;4995994;28;20038;-79
2024/04/01 05:44:47;;;;;;;7.07;4.85;;;13.70;89.50;;;;;;4995733;28;20038;-79
2024/04/01 05:47:13;;;;;;;7.25;4.60;;;13.80;89.50;;;;;;4978553;28;20023;-79
2024/04/01 05:49:38;;;;;;;7.50;4.53;;;13.60;89.40;;;;;;4978183;28;20372;-79
2024/04/01 05:52:04;;;;;;;7.50;4.95;;;13.70;89.50;;;;;;4995776;28;20113;-79
2024/04/01 05:54:30;;;;;;;7.95;4.88;;;13.70;89.40;;;;;;4995426;28;20026;-78
2024/04/01 05:56:57;;;;;;;7.55;4.78;;;13.60;89.40;;;;;;4995834;28;20022;-79
2024/04/01 05:59:23;;;;;;;7.85;4.95;;;13.60;89.40;;;;;;4995315;28;20026;-79
2024/04/01 06:01:49;;;;;;;7.18;4.47;;;13.70;89.50;;;;;;4978008;28;20029;-79
2024/04/01 06:04:14;;;;;;;6.68;4.30;;;13.70;89.40;;;;;;4977951;28;20014;-79
2024/04/01 06:06:40;;;;;;;6.95;4.35;;;13.60;89.40;;;;;;4978005;28;20018;-79
2024/04/01 06:09:07;;;;;;;7.50;5.03;;;13.70;89.50;;;;;;4995173;28;20033;-79
2024/04/01 06:11:32;;;;;;;7.07;4.68;;;13.70;89.40;;;;;;4977671;28;20034;-79
2024/04/01 06:13:58;;;;;;;8.07;5.07;;;13.80;89.50;;;;;;4977564;28;20048;-79
2024/04/01 06:16:23;;;;;;;6.43;4.22;;;13.60;89.40;;;;;;4995200;28;20049;-79
2024/04/01 06:18:49;;;;;;;7.03;4.78;;;13.80;89.50;;;;;;4995025;28;20023;-79
2024/04/01 06:21:15;;;;;;;7.30;4.70;;;13.60;89.40;;;;;;4977150;28;20116;-79
2024/04/01 06:23:41;;;;;;;7.50;4.38;;;13.80;89.50;;;;;;4994620;28;20031;-79
2024/04/01 06:26:06;;;;;;;7.13;4.25;;;13.80;89.50;;;;;;4994601;28;20093;-79
2024/04/01 06:28:32;;;;;;;7.28;4.25;;;13.60;89.40;;;;;;4994623;28;20030;-79
2024/04/01 06:30:58;;;;;;;6.75;4.10;;;13.80;89.50;;;;;;4977047;28;20104;-79
2024/04/01 06:33:23;;;;;;;6.70;4.20;;;13.70;89.40;;;;;;4977126;28;20026;-79
2024/04/01 06:36:04;;;;;;;6.78;4.25;;;13.60;89.40;;;;;;4977227;28;20120;-79
2024/04/01 06:38:31;;;;;;;7.03;4.55;;;13.70;89.50;;;;;;4994432;28;20037;-79
2024/04/01 06:40:57;;;;;;;6.47;4.38;;;13.70;89.50;;;;;;4977103;28;20030;-78
2024/04/01 06:43:23;;;;;;;6.30;3.90;;;13.70;89.40;;;;;;4993150;28;20037;-78
2024/04/01 06:45:53;;;;;;;7.35;4.25;;;13.70;89.40;;;;;;4993655;28;20557;-80
2024/04/01 06:48:18;;;;;;;7.00;4.38;;;13.60;89.40;;;;;;4978968;28;20053;-79
2024/04/01 06:50:44;;;;;;;6.85;3.97;;;13.70;89.50;;;;;;4976918;28;20061;-79
2024/04/01 06:53:10;;;;;;;6.82;4.25;;;13.70;89.40;;;;;;4994553;28;20034;-79
2024/04/01 06:55:36;;;;;;;7.30;4.20;;;13.70;89.40;;;;;;4976333;28;20649;-79
2024/04/01 06:58:01;;;;;;;6.32;3.95;;;13.70;89.40;;;;;;4994609;28;20129;-78
2024/04/01 07:00:27;;;;;;;6.38;4.28;;;13.60;89.40;;;;;;4994688;28;20057;-78
2024/04/01 07:02:52;;;;;;;7.40;4.50;;;13.80;89.50;;;;;;4992641;28;20022;-78
2024/04/01 07:05:18;;;;;;;6.25;4.03;;;13.70;89.50;;;;;;4976701;28;20033;-80
2024/04/01 07:07:44;;;;;;;6.97;4.20;;;13.70;89.40;;;;;;4992741;28;20490;-78
2024/04/01 07:10:11;;;;;;;7.28;4.43;;;13.70;89.40;;;;;;4993177;28;20030;-79
2024/04/01 07:12:36;;;;;;;7.32;4.35;;;13.80;89.50;;;;;;4993476;28;20042;-79
2024/04/01 07:15:02;;;;;;;6.90;4.05;;;13.70;89.50;;;;;;4975530;28;20577;-79
2024/04/01 07:17:28;;;;;;;6.50;4.20;;;13.70;89.50;;;;;;4975263;28;20514;-79
2024/04/01 07:19:53;;;;;;;6.90;4.00;;;13.70;89.40;;;;;;4975302;28;20073;-80
2024/04/01 07:22:19;;;;;;;7.55;4.68;;;13.70;89.40;;;;;;4976135;28;20030;-79
2024/04/01 07:24:44;;;;;;;6.43;4.30;;;13.70;89.40;;;;;;4975201;28;20033;-79
2024/04/01 07:27:10;;;;;;;6.38;3.95;;;13.70;89.40;;;;;;4976240;28;20025;-79
2024/04/01 07:29:35;;;;;;;7.13;4.03;;;13.70;89.40;;;;;;4992835;28;20019;-81
2024/04/01 07:32:01;;;;;;;6.35;4.05;;;13.70;89.40;;;;;;4993257;28;20041;-79
2024/04/01 07:34:26;;;;;;;6.40;3.95;;;13.80;89.50;;;;;;4993283;28;20035;-80
2024/04/01 07:36:52;;;;;;;6.65;4.15;;;13.80;89.50;;;;;;4991889;28;20049;-80
2024/04/01 07:39:18;;;;;;;8.13;4.40;;;13.60;89.40;;;;;;4973734;28;20022;-77
2024/04/01 07:41:43;;;;;;;6.65;4.13;;;13.80;89.50;;;;;;4991970;28;20038;-79
2024/04/01 07:44:09;;;;;;;6.60;4.00;;;13.70;89.40;;;;;;4991453;28;20026;-80
2024/04/01 07:46:34;;;;;;;6.70;4.05;;;13.70;89.40;;;;;;4973919;28;20517;-80
2024/04/01 07:49:00;;;;;;;6.97;4.10;;;13.80;89.50;;;;;;4991276;28;20026;-79
2024/04/01 07:51:26;;;;;;;7.55;4.57;;;13.80;89.50;;;;;;4990755;28;20041;-79
2024/04/01 07:53:51;;;;;;;6.22;3.85;;;13.70;89.40;;;;;;4974146;28;20034;-79
2024/04/01 07:56:17;;;;;;;6.45;3.92;;;13.70;89.40;;;;;;4973565;28;20026;-79
2024/04/01 07:58:42;;;;;;;6.75;4.05;;;13.70;90.00;;;;;;4973545;28;20156;-78
2024/04/01 08:01:08;;;;;;;6.35;4.00;;;13.70;89.40;;;;;;4990723;28;20026;-79
2024/04/01 08:03:35;;;;;;;6.78;4.10;;;13.60;89.40;;;;;;4973596;28;20018;-79
2024/04/01 08:06:00;;;;;;;6.90;4.10;;;13.70;89.50;;;;;;4991915;28;20762;-79
2024/04/01 08:08:26;;;;;;;7.13;4.32;;;13.70;89.40;;;;;;4974111;28;20034;-79
2024/04/01 08:10:51;;;;;;;6.55;4.15;;;13.70;89.50;;;;;;4973822;28;20026;-79
2024/04/01 08:13:17;;;;;;;6.93;4.13;;;13.70;89.40;;;;;;4973951;28;20458;-80
2024/04/01 08:15:42;;;;;;;6.47;4.38;;;13.70;89.40;;;;;;4991929;28;20088;-81
2024/04/01 08:18:08;;;;;;;6.20;3.80;;;13.70;89.50;;;;;;4992309;28;20034;-82
2024/04/01 08:20:34;;;;;;;6.43;4.25;;;13.70;89.50;;;;;;4975256;28;20159;-79
2024/04/01 08:23:00;;;;;;;6.47;4.20;;;13.70;89.60;;;;;;4990445;28;20045;-77
2024/04/01 08:25:25;;;;;;;7.00;4.35;;;13.80;90.00;;;;;;4990975;28;20084;-79
2024/04/01 08:27:52;;;;;;;6.97;4.50;;;13.70;89.60;;;;;;4973903;28;20507;-80
2024/04/01 08:30:18;;;;;;;6.78;4.07;;;13.70;89.50;;;;;;4991285;28;20030;-80
2024/04/01 08:32:43;;;;;;;7.13;4.10;;;13.80;89.60;;;;;;4990982;28;20057;-81
2024/04/01 08:35:09;;;;;;;7.00;4.53;;;13.70;89.60;;;;;;4974004;28;20450;-80
2024/04/01 08:37:35;;;;;;;6.75;4.35;;;13.70;89.60;;;;;;4991403;28;20038;-79
2024/04/01 08:40:00;;;;;;;7.07;4.15;;;13.70;89.60;;;;;;4974595;28;20034;-79
2024/04/01 08:42:27;;;;;;;5.97;3.55;;;13.80;89.60;;;;;;4971236;28;20022;-80
2024/04/01 08:44:55;;;;;;;6.88;4.25;;;13.80;89.60;;;;;;4991569;28;20042;-81
2024/04/01 08:47:23;;;;;;;6.65;4.07;;;13.70;89.50;;;;;;4974145;28;20022;-79
2024/04/01 08:49:55;;;;;;;6.82;3.80;;;13.80;89.60;;;;;;4974184;28;20073;-80
2024/04/01 08:52:26;;;;;;;7.15;4.35;;;13.80;90.00;;;;;;4991829;28;20037;-81
2024/04/01 08:54:53;;;;;;;5.82;3.60;;;13.70;89.50;;;;;;4974704;28;20046;-79
2024/04/01 08:57:19;;;;;;;6.93;3.90;;;13.70;89.50;;;;;;4991660;28;20181;-80
2024/04/01 08:59:45;;;;;;;7.38;4.85;;;13.70;89.50;;;;;;4973574;28;20542;-79
2024/04/01 09:02:11;;;;;;;7.30;4.05;;;13.70;89.50;;;;;;4991658;28;20529;-80
2024/04/01 09:04:36;;;;;;;7.35;4.20;;;13.70;89.50;;;;;;4974229;28;20023;-79
2024/04/01 09:07:02;;;;;;;6.47;4.00;;;13.80;89.60;;;;;;4976680;28;20022;-80
2024/04/01 09:09:27;;;;;;;6.90;4.15;;;13.70;89.50;;;;;;4995186;28;20049;-79
2024/04/01 09:11:55;;;;;;;6.60;4.00;;;13.60;89.50;;;;;;4994350;28;20109;-81
2024/04/01 09:14:20;;;;;;;6.55;3.90;;;13.80;89.60;;;;;;4978140;28;20026;-79
2024/04/01 09:16:49;;;;;;;6.97;4.07;;;13.70;89.50;;;;;;4977496;28;20026;-80
2024/04/01 09:19:16;;;;;;;6.75;4.10;;;13.80;89.70;;;;;;4977486;28;20026;-80
2024/04/01 09:21:42;;;;;;;6.00;3.55;;;13.70;89.60;;;;;;4977287;28;20062;-78
2024/04/01 09:24:09;;;;;;;6.50;4.10;;;13.70;89.60;;;;;;4994876;28;20065;-79
2024/04/01 09:26:35;;;;;;;6.65;4.07;;;13.70;89.60;;;;;;4977519;28;20026;-80
2024/04/01 09:29:02;;;;;;;6.60;3.97;;;13.70;89.60;;;;;;4977572;28;20805;-79
2024/04/01 09:31:28;;;;;;;6.70;4.00;;;13.80;89.60;;;;;;4994905;28;20023;-79
2024/04/01 09:33:54;;;;;;;7.32;4.10;;;13.70;89.60;;;;;;4994943;28;20042;-80
2024/04/01 09:36:20;;;;;;;6.55;4.07;;;13.80;89.70;;;;;;4977197;28;20037;-79
2024/04/01 09:38:46;;;;;;;5.90;3.95;;;13.70;89.70;;;;;;4994929;28;20414;-79
2024/04/01 09:41:12;;;;;;;6.97;4.00;;;13.80;89.60;;;;;;4994970;28;20035;-80
2024/04/01 09:43:38;;;;;;;7.32;4.40;;;13.80;89.60;;;;;;4976956;28;20049;-80
2024/04/01 09:46:04;;;;;;;7.75;4.00;;;13.60;89.60;;;;;;4995207;28;20030;-81
2024/04/01 09:48:30;;;;;;;6.35;4.00;;;13.80;89.70;;;;;;4995149;28;20042;-79
2024/04/01 09:50:57;;;;;;;6.63;4.07;;;13.60;89.60;;;;;;4976641;28;20033;-79
2024/04/01 09:53:24;;;;;;;6.28;4.10;;;13.70;89.60;;;;;;4994221;28;20034;-79
2024/04/01 09:56:22;;;;;;;6.93;3.88;;;13.80;89.70;;;;;;4991680;28;20030;-79
2024/04/01 09:59:27;;;;;;;5.95;3.40;;;13.70;89.70;;;;;;4974055;28;20038;-78
2024/04/01 10:02:12;;;;;;;5.63;3.55;;;13.80;89.70;;;;;;4989876;28;20064;-80
2024/04/01 10:05:19;;;;;;;7.05;4.03;;;13.80;89.80;;;;;;4973533;28;20491;-78
2024/04/01 10:08:06;;;;;;;6.63;3.72;;;13.70;89.70;;;;;;4958682;28;20042;-77
2024/04/01 10:11:02;;;;;;;6.38;4.00;;;13.80;89.70;;;;;;4991220;28;20030;-79
2024/04/01 10:14:09;;;;;;;6.53;3.75;;;13.80;89.80;;;;;;4991039;28;20038;-78
2024/04/01 10:16:47;;;;;;;7.32;3.78;;;13.80;89.80;;;;;;4973838;28;20022;-78
2024/04/01 10:19:50;;;;;;;5.72;3.63;;;13.70;89.70;;;;;;4989816;28;20053;-78
2024/04/01 10:22:18;;;;;;;6.65;3.88;;;13.70;89.70;;;;;;4973480;28;20101;-79
2024/04/01 10:25:25;;;;;;;6.22;3.80;;;13.80;89.70;;;;;;4990884;28;20034;-78
2024/04/01 10:28:21;;;;;;;5.90;3.67;;;13.80;89.70;;;;;;4951873;28;20034;-78
2024/04/01 10:31:05;;;;;;;6.15;3.70;;;13.90;89.80;;;;;;4960031;28;20084;-79
2024/04/01 10:34:01;;;;;;;6.32;3.70;;;13.80;89.70;;;;;;4973306;28;20049;-78
2024/04/01 10:36:52;;;;;;;5.50;3.40;;;13.80;89.70;;;;;;4973200;28;20112;-79
2024/04/01 10:39:36;;;;;;;;;;;13.70;89.60;;;;;;4991326;28;20022;-78
2024/04/01 10:42:32;;;;;;;5.90;3.50;;;13.70;89.60;;;;;;4990456;28;20008;-79
2024/04/01 10:45:27;;;;;;;6.07;3.72;;;13.70;90.10;;;;;;4990738;28;20054;-79
2024/04/01 10:48:15;;;;;;;6.32;3.70;;;13.80;89.80;;;;;;4973204;28;20043;-78
2024/04/01 10:51:22;;;;;;;6.13;3.78;;;13.80;90.10;;;;;;4989691;28;20023;-78
2024/04/01 10:54:04;;;;;;;6.20;3.78;;;13.80;89.80;;;;;;4990308;28;20395;-78
2024/04/01 10:57:06;;;;;;;6.43;3.85;;;13.80;89.70;;;;;;4990408;28;20057;-79
2024/04/01 10:59:56;;;;;;;6.22;3.60;;;13.80;89.70;;;;;;4989908;28;20030;-78
2024/04/01 11:03:16;;;;;;;6.90;3.80;;;13.80;89.70;;;;;;4990518;28;20030;-78
2024/04/01 11:06:11;;;;;;;7.45;3.83;;;13.80;89.70;;;;;;4937982;28;20121;-79
2024/04/01 11:08:57;;;;;;;5.78;3.60;;;13.80;89.70;;;;;;4990262;28;20031;-79
2024/04/01 11:12:14;;;;;;;5.95;3.55;;;13.80;89.60;;;;;;4972927;28;20062;-78
2024/04/01 11:14:43;;;;;;;6.25;3.72;;;13.80;89.60;;;;;;4938152;28;20043;-78
2024/04/01 11:17:09;;;;;;;5.90;3.45;;;13.80;89.50;;;;;;4989913;28;20030;-78
2024/04/01 11:20:05;;;;;;;6.78;3.95;;;13.80;89.50;;;;;;4972531;28;20387;-78
2024/04/01 11:22:48;;;;;;;6.70;3.70;;;13.80;89.40;;;;;;4990284;28;20069;-78
2024/04/01 11:25:25;;;;;;;5.88;3.30;;;13.90;89.40;;;;;;4989811;28;20199;-79
2024/04/01 11:28:28;;;;;;;6.63;4.10;;;13.90;89.30;;;;;;4989856;28;20030;-78
2024/04/01 11:31:09;;;;;;;5.90;3.60;;;13.80;89.30;;;;;;4971693;28;20180;-78
2024/04/01 11:33:48;;;;;;;5.75;3.53;;;13.80;89.30;;;;;;4989915;28;20034;-79
2024/04/01 11:36:21;;;;;;;5.88;3.60;;;13.90;89.30;;;;;;4973043;28;20470;-79
2024/04/01 11:39:09;;;;;;;6.63;3.85;;;13.80;89.30;;;;;;4990251;28;20031;-79
2024/04/01 11:41:40;;;;;;;6.20;3.80;;;13.80;89.30;;;;;;4989984;28;20034;-79
2024/04/01 11:44:06;;;;;;;5.53;3.43;;;13.80;89.30;;;;;;4972648;28;20022;-79
2024/04/01 11:46:33;;;;;;;5.78;3.63;;;13.90;89.50;;;;;;4988523;28;21108;-78
2024/04/01 11:48:58;;;;;;;5.47;3.30;;;13.90;89.50;;;;;;4971560;28;20022;-78
2024/04/01 11:51:31;;;;;;;5.93;3.53;;;13.70;89.30;;;;;;4988118;28;20027;-79
2024/04/01 11:53:57;;;;;;;5.35;3.40;;;13.80;89.40;;;;;;4988875;28;20034;-78
2024/04/01 11:56:38;;;;;;;6.78;3.65;;;13.70;89.40;;;;;;4970822;28;20034;-79
2024/04/01 11:59:09;;;;;;;5.95;3.47;;;13.90;89.50;;;;;;4988851;28;20027;-80
2024/04/01 12:01:36;;;;;;;5.32;3.20;;;13.90;89.60;;;;;;4971427;28;20030;-79
2024/04/01 12:04:03;;;;;;;6.00;3.60;;;13.90;89.60;;;;;;4970618;28;20031;-79
2024/04/01 12:06:30;;;;;;;5.43;3.33;;;13.80;89.60;;;;;;4971083;28;20031;-79
2024/04/01 12:09:00;;;;;;;6.30;3.67;;;13.90;89.60;;;;;;4970886;28;20029;-78
2024/04/01 12:11:32;;;;;;;5.88;3.58;;;13.80;89.50;;;;;;4988324;28;20038;-78
2024/04/01 12:13:58;;;;;;;5.75;3.40;;;13.90;89.70;;;;;;4988213;28;20089;-79
2024/04/01 12:16:24;;;;;;;5.78;3.47;;;13.80;89.40;;;;;;4988504;28;20035;-78
2024/04/01 12:18:51;;;;;;;5.68;3.35;;;13.90;89.50;;;;;;4973511;28;20031;-79
2024/04/01 12:21:18;;;;;;;6.30;3.55;;;13.90;89.30;;;;;;4987676;28;20088;-78
2024/04/01 12:23:45;;;;;;;5.50;3.30;;;13.90;89.10;;;;;;4971143;28;20080;-79
2024/04/01 12:26:11;;;;;;;5.60;3.28;;;13.90;89.10;;;;;;4970763;28;20030;-79
2024/04/01 12:28:37;;;;;;;8.23;3.95;;;13.90;89.10;;;;;;4970955;28;20510;-79
2024/04/01 12:31:04;;;;;;;7.20;3.47;;;13.90;89.10;;;;;;4970712;28;20467;-78
2024/04/01 12:33:36;;;;;;;6.03;3.63;;;13.90;89.20;;;;;;4988293;28;20137;-78
2024/04/01 12:36:02;;;;;;;6.55;3.53;;;13.80;89.00;;;;;;4971729;28;20038;-79
2024/04/01 12:38:33;;;;;;;6.00;3.55;;;13.90;89.00;;;;;;4990948;28;20042;-78
2024/04/01 12:41:00;;;;;;;5.95;3.13;;;13.80;89.00;;;;;;4971756;28;20050;-79
2024/04/01 12:43:27;;;;;;;6.60;3.35;;;13.80;89.00;;;;;;4992060;28;20030;-79
2024/04/01 12:45:54;;;;;;;6.88;3.50;;;13.90;89.00;;;;;;4992761;28;20031;-79
2024/04/01 12:48:20;;;;;;;6.80;3.75;;;14.00;89.10;;;;;;4974960;28;20022;-82
2024/04/01 12:50:55;;;;;;;5.80;3.33;;;14.00;89.10;;;;;;4992060;28;20035;-78
2024/04/01 12:53:35;;;;;;;6.97;3.42;;;14.00;89.00;;;;;;4991728;28;20036;-80
2024/04/01 12:56:38;;;;;;;6.88;3.65;;;13.90;89.00;;;;;;4991881;28;20031;-79
2024/04/01 12:59:42;;;;;;;6.13;3.13;;;13.90;89.00;;;;;;4974945;28;20037;-79